Playa del Carmen, Mexico

9:41 PM CDT on August 31, 2015 (GMT -0500)
APRSWXNET | | Change Station
CLOSE
Current Station
Personal Weather Station
Location: Cozumel,
Elevation: 36 ft
Nearby Weather Stations

Elev 36 ft 20.51 °N, 86.93 °W | Updated 32 minutes ago

Overcast
Overcast
80 °F
Feels Like 86 °F
N
4
Wind Variable Wind from ESE
Gusts 7.0 mph

Today
High -- | Low -- °F
--% Chance of Precip.
Yesterday
High -- | Low -- °F
Precip. -- in
6:31 AM 7:04 PM
Waning Gibbous, 92% visible
Pressure 30.01 in
Visibility 7.0 miles
Clouds Scattered Clouds 8000 ft
Overcast 30000 ft
Heat Index 86 °F
Dew Point 78 °F
Humidity 94%
Rainfall in
Snow Depth Not available.
UV 0 out of 12
Pollen Not available.
Air Quality Not available.
Flu Activity Not available.
METAR MMUN 010141Z 06004KT 7SM SCT080 OVC300 27/26 A3001 RMK 8/077 SC BINOVC
Pressure 30.01 in
Visibility 7.0 miles
Clouds Scattered Clouds 8000 ft
Overcast 30000 ft
Heat Index 86 °F
Dew Point 78 °F
Humidity 94%
Rainfall in
Snow Depth Not available.
UV 0 out of 12
Pollen Not available.
Air Quality Not available.
Flu Activity Not available.
METAR MMUN 010141Z 06004KT 7SM SCT080 OVC300 27/26 A3001 RMK 8/077 SC BINOVC

10-Day Weather Forecast

×

Almanac

Astronomy

Aug. 31, 2015 Rise Set
Actual Time
Civil Twilight
Nautical Twilight
Astronomical Twilight
Moon
Length of Visible Light
Length of Day
Tomorrow will be .
, % of the Moon is Illuminated

Today's Extremes

Country Highs Country Lows

Community

WunderPhotos

Upload Photos

1,851,459 photos uploaded!

WunderBlogs® & News

Nearby

Air Quality

  Air Quality AQ Index Pollutant
Not available.

Snow Depth

Station Depth Elevation

Earthquake Activity

City Distance Mag. Time & Date
Minimum magnitude displayed is 2.5.

Coastal Water Temperatures

Place Temperature

Stations

Nearby Weather Stations

Station Location Temp. Windchill Dew Point Humidity Wind Precip. Elev Updated Type